createdAt,value
2022-12-03T00:00:01.101Z,1.80
2022-12-03T00:02:28.749Z,1.80
2022-12-03T00:04:56.321Z,1.80
2022-12-03T00:07:23.875Z,1.70
2022-12-03T00:09:51.446Z,1.60
2022-12-03T00:12:18.826Z,1.60
2022-12-03T00:14:46.208Z,1.60
2022-12-03T00:17:13.573Z,1.50
2022-12-03T00:19:41.054Z,1.50
2022-12-03T00:22:08.429Z,1.50
2022-12-03T00:24:35.814Z,1.50
2022-12-03T00:27:03.245Z,1.50
2022-12-03T00:29:30.655Z,1.60
2022-12-03T00:31:58.090Z,1.70
2022-12-03T00:34:25.482Z,1.80
2022-12-03T00:36:52.958Z,1.90
2022-12-03T00:39:20.318Z,2.00
2022-12-03T00:41:47.809Z,2.10
2022-12-03T00:44:15.273Z,2.30
2022-12-03T00:46:42.726Z,2.40
2022-12-03T00:49:10.201Z,2.50
2022-12-03T00:51:37.605Z,2.70
2022-12-03T00:54:04.977Z,2.80
2022-12-03T00:56:32.363Z,2.90
2022-12-03T00:58:59.845Z,3.00
2022-12-03T01:01:27.273Z,3.10
2022-12-03T01:03:54.754Z,3.20
2022-12-03T01:06:22.145Z,3.20
2022-12-03T01:08:49.657Z,3.30
2022-12-03T01:11:35.771Z,3.40
2022-12-03T01:14:03.969Z,3.40
2022-12-03T01:16:34.826Z,3.50
2022-12-03T01:19:02.627Z,3.50
2022-12-03T01:21:30.021Z,3.60
2022-12-03T01:23:57.679Z,3.60
2022-12-03T01:26:25.691Z,3.70
2022-12-03T01:28:53.189Z,3.60
2022-12-03T01:31:39.842Z,3.60
2022-12-03T01:34:07.293Z,3.70
2022-12-03T01:36:34.792Z,3.70
2022-12-03T01:39:03.155Z,3.70
2022-12-03T01:41:31.103Z,3.70
2022-12-03T01:43:58.947Z,3.70
2022-12-03T01:46:35.017Z,3.70
2022-12-03T01:49:02.605Z,3.70
2022-12-03T01:51:30.483Z,3.60
2022-12-03T01:53:58.607Z,3.60
2022-12-03T01:56:26.167Z,3.60
2022-12-03T01:58:53.741Z,3.60
2022-12-03T02:01:21.233Z,3.50
2022-12-03T02:03:48.783Z,3.40
2022-12-03T02:06:17.407Z,3.40
2022-12-03T02:08:44.943Z,3.30
2022-12-03T02:11:21.013Z,3.30
2022-12-03T02:13:51.741Z,3.20
2022-12-03T02:16:19.275Z,3.20
2022-12-03T02:18:46.919Z,3.10
2022-12-03T02:21:14.257Z,3.10
2022-12-03T02:23:46.866Z,3.00
2022-12-03T02:26:14.309Z,2.90
2022-12-03T02:28:41.716Z,2.90
2022-12-03T02:31:09.279Z,2.90
2022-12-03T02:33:36.771Z,2.90
2022-12-03T02:36:04.461Z,2.90
2022-12-03T02:38:32.386Z,2.90
2022-12-03T02:41:02.273Z,2.90
2022-12-03T02:43:29.792Z,2.80
2022-12-03T02:45:59.144Z,2.80
2022-12-03T02:48:34.721Z,2.80
2022-12-03T02:51:04.202Z,2.80
2022-12-03T02:53:35.865Z,2.70
2022-12-03T02:56:04.294Z,2.70
2022-12-03T02:58:32.399Z,2.70
2022-12-03T03:01:00.715Z,2.70
2022-12-03T03:03:28.910Z,2.80
2022-12-03T03:05:56.866Z,2.80
2022-12-03T03:08:24.832Z,2.80
2022-12-03T03:10:52.228Z,2.90
2022-12-03T03:13:19.879Z,3.00
2022-12-03T03:15:47.359Z,3.00
2022-12-03T03:18:18.076Z,3.10
2022-12-03T03:20:45.725Z,3.10
2022-12-03T03:23:18.075Z,3.10
2022-12-03T03:25:54.650Z,3.20
2022-12-03T03:28:22.863Z,3.30
2022-12-03T03:30:50.308Z,3.30
2022-12-03T03:33:17.933Z,3.40
2022-12-03T03:35:46.985Z,3.40
2022-12-03T03:38:14.876Z,3.50
2022-12-03T03:40:42.405Z,3.50
2022-12-03T03:43:10.572Z,3.60
2022-12-03T03:45:38.061Z,3.60
2022-12-03T03:48:07.312Z,3.60
2022-12-03T03:50:34.992Z,3.50
2022-12-03T03:53:02.929Z,3.60
2022-12-03T03:55:30.642Z,3.50
2022-12-03T03:57:58.396Z,3.60
2022-12-03T04:00:25.999Z,3.60
2022-12-03T04:02:54.434Z,3.50
2022-12-03T04:05:23.033Z,3.50
2022-12-03T04:07:50.761Z,3.40
2022-12-03T04:10:36.627Z,3.40
2022-12-03T04:13:04.495Z,3.30
2022-12-03T04:15:32.063Z,3.20
2022-12-03T04:18:18.143Z,3.20
2022-12-03T04:20:45.572Z,3.10
2022-12-03T04:23:12.982Z,3.10
2022-12-03T04:25:58.927Z,3.10
2022-12-03T04:28:45.178Z,3.00
2022-12-03T04:31:31.342Z,3.00
2022-12-03T04:34:17.394Z,3.10
2022-12-03T04:36:44.890Z,3.20
2022-12-03T04:39:12.322Z,3.20
2022-12-03T04:41:39.800Z,3.30
2022-12-03T04:44:25.863Z,3.30
2022-12-03T04:46:53.370Z,3.40
2022-12-03T04:49:20.800Z,3.30
2022-12-03T04:51:48.241Z,3.40
2022-12-03T04:54:16.097Z,3.30
2022-12-03T04:56:43.573Z,3.40
2022-12-03T04:59:15.942Z,3.30
2022-12-03T05:01:44.642Z,3.30
2022-12-03T05:04:12.645Z,3.40
2022-12-03T05:06:40.100Z,3.40
2022-12-03T05:09:07.835Z,3.40
2022-12-03T05:11:35.218Z,3.40
2022-12-03T05:14:02.613Z,3.40
2022-12-03T05:16:30.117Z,3.30
2022-12-03T05:18:57.674Z,3.30
2022-12-03T05:21:25.252Z,3.30
2022-12-03T05:23:52.762Z,3.20
2022-12-03T05:26:20.239Z,3.20
2022-12-03T05:28:47.649Z,3.30
2022-12-03T05:31:15.074Z,3.40
2022-12-03T05:33:44.403Z,3.40
2022-12-03T05:36:12.193Z,3.50
2022-12-03T05:38:39.616Z,3.50
2022-12-03T05:41:27.162Z,3.40
2022-12-03T05:43:54.943Z,3.50
2022-12-03T05:46:22.453Z,3.50
2022-12-03T05:48:49.931Z,3.50
2022-12-03T05:51:17.348Z,3.50
2022-12-03T05:53:44.843Z,3.40
2022-12-03T05:56:12.489Z,3.40
2022-12-03T05:58:39.853Z,3.40
2022-12-03T06:01:07.270Z,3.40
2022-12-03T06:03:34.798Z,3.40
2022-12-03T06:06:02.393Z,3.40
2022-12-03T06:08:29.786Z,3.30
2022-12-03T06:10:57.189Z,3.20
2022-12-03T06:13:24.805Z,3.20
2022-12-03T06:15:52.277Z,3.20
2022-12-03T06:18:19.767Z,3.30
2022-12-03T06:20:47.183Z,3.20
2022-12-03T06:23:14.632Z,3.20
2022-12-03T06:25:42.054Z,3.10
2022-12-03T06:28:10.278Z,3.10
2022-12-03T06:30:37.699Z,3.10
2022-12-03T06:33:06.379Z,3.00
2022-12-03T06:35:34.753Z,2.90
2022-12-03T06:38:02.183Z,2.90
2022-12-03T06:40:29.735Z,3.00
2022-12-03T06:42:57.129Z,2.90
2022-12-03T06:45:25.066Z,2.90
2022-12-03T06:47:52.470Z,2.80
2022-12-03T06:50:19.867Z,2.70
2022-12-03T06:52:47.346Z,2.60
2022-12-03T06:55:14.775Z,2.60
2022-12-03T06:57:42.209Z,2.60
2022-12-03T07:00:10.418Z,2.50
2022-12-03T07:02:37.888Z,2.40
2022-12-03T07:05:05.717Z,2.30
2022-12-03T07:07:33.161Z,2.30
2022-12-03T07:10:00.614Z,2.10
2022-12-03T07:12:28.134Z,2.00
2022-12-03T07:14:55.958Z,2.00
2022-12-03T07:17:23.731Z,1.90
2022-12-03T07:19:51.125Z,1.90
2022-12-03T07:22:18.597Z,1.80
2022-12-03T07:24:46.000Z,1.60
2022-12-03T07:27:13.377Z,1.60
2022-12-03T07:29:40.903Z,1.50
2022-12-03T07:32:08.407Z,1.50
2022-12-03T07:34:35.833Z,1.50
2022-12-03T07:37:04.892Z,1.40
2022-12-03T07:39:32.336Z,1.40
2022-12-03T07:41:59.863Z,1.30
2022-12-03T07:44:28.322Z,1.30
2022-12-03T07:46:55.864Z,1.20
2022-12-03T07:49:23.401Z,1.20
2022-12-03T07:51:54.437Z,1.00
2022-12-03T07:54:21.938Z,0.90
2022-12-03T07:56:49.361Z,0.80
2022-12-03T07:59:17.201Z,0.80
2022-12-03T08:01:45.238Z,0.80
2022-12-03T08:04:14.758Z,0.80
2022-12-03T08:06:42.220Z,0.80
2022-12-03T08:09:14.562Z,0.80
2022-12-03T08:11:45.262Z,0.80
2022-12-03T08:14:16.924Z,0.80
2022-12-03T08:16:45.210Z,0.90
2022-12-03T08:19:14.143Z,0.80
2022-12-03T08:21:41.747Z,0.80
2022-12-03T08:24:13.178Z,0.80
2022-12-03T08:26:41.186Z,0.90
2022-12-03T08:29:09.351Z,0.90
2022-12-03T08:31:36.999Z,0.80
2022-12-03T08:34:13.601Z,0.80
2022-12-03T08:36:41.038Z,0.70
2022-12-03T08:39:27.722Z,0.70
2022-12-03T08:42:16.945Z,0.70
2022-12-03T08:44:44.403Z,0.70
2022-12-03T08:47:22.145Z,0.80
2022-12-03T08:49:58.189Z,0.80
2022-12-03T08:52:33.508Z,0.80
2022-12-03T08:55:09.905Z,0.80
2022-12-03T08:57:37.356Z,0.80
2022-12-03T09:00:21.659Z,0.70
2022-12-03T09:03:05.448Z,0.70
2022-12-03T09:05:33.468Z,0.70
2022-12-03T09:08:00.966Z,0.80
2022-12-03T09:10:28.556Z,0.90
2022-12-03T09:12:55.971Z,0.90
2022-12-03T09:15:23.382Z,1.00
2022-12-03T09:17:50.802Z,1.20
2022-12-03T09:20:18.212Z,1.40
2022-12-03T09:22:45.605Z,1.50
2022-12-03T09:25:12.986Z,1.70
2022-12-03T09:27:40.425Z,1.80
2022-12-03T09:30:08.071Z,2.00
2022-12-03T09:32:35.517Z,2.10
2022-12-03T09:35:03.256Z,2.30
2022-12-03T09:37:30.622Z,2.40
2022-12-03T09:39:58.031Z,2.60
2022-12-03T09:42:25.830Z,2.80
2022-12-03T09:44:53.966Z,2.90
2022-12-03T09:47:21.532Z,3.00
2022-12-03T09:49:48.960Z,3.10
2022-12-03T09:52:27.209Z,3.30
2022-12-03T09:54:55.467Z,3.30
2022-12-03T09:57:23.188Z,3.40
2022-12-03T09:59:50.762Z,3.60
2022-12-03T10:02:22.528Z,3.70
2022-12-03T10:04:50.256Z,3.80
2022-12-03T10:07:17.818Z,3.90
2022-12-03T10:09:45.282Z,4.00
2022-12-03T10:12:13.834Z,4.10
2022-12-03T10:14:41.868Z,4.10
2022-12-03T10:17:11.644Z,4.10
2022-12-03T10:19:39.756Z,4.10
2022-12-03T10:22:07.182Z,4.00
2022-12-03T10:24:35.757Z,4.00
2022-12-03T10:27:23.422Z,4.10
2022-12-03T10:29:55.693Z,4.20
2022-12-03T10:32:38.330Z,4.30
2022-12-03T10:35:07.820Z,4.40
2022-12-03T10:37:35.232Z,4.60
2022-12-03T10:40:03.159Z,4.60
2022-12-03T10:42:32.412Z,4.70
2022-12-03T10:45:23.161Z,4.70
2022-12-03T10:48:09.283Z,4.80
2022-12-03T10:50:36.830Z,4.80
2022-12-03T10:53:04.880Z,5.00
2022-12-03T10:55:37.733Z,5.10
2022-12-03T10:58:05.220Z,5.10
2022-12-03T11:00:32.673Z,5.20
2022-12-03T11:03:00.109Z,5.30
2022-12-03T11:05:28.517Z,5.30
2022-12-03T11:07:56.732Z,5.40
2022-12-03T11:10:24.362Z,5.40
2022-12-03T11:13:10.611Z,5.40
2022-12-03T11:15:45.191Z,5.40
2022-12-03T11:18:35.636Z,5.40
2022-12-03T11:21:03.118Z,5.50
2022-12-03T11:23:46.056Z,5.60
2022-12-03T11:26:19.617Z,5.70
2022-12-03T11:28:47.347Z,5.80
2022-12-03T11:31:35.746Z,5.90
2022-12-03T11:34:18.834Z,5.90
2022-12-03T11:37:05.433Z,6.00
2022-12-03T11:39:45.575Z,6.10
2022-12-03T11:42:26.318Z,6.20
2022-12-03T11:45:06.233Z,6.30
2022-12-03T11:47:41.322Z,6.30
2022-12-03T11:50:37.787Z,6.40
2022-12-03T11:53:10.630Z,6.50
2022-12-03T11:55:39.074Z,6.60
2022-12-03T11:58:17.483Z,6.70
2022-12-03T12:00:48.930Z,6.80
2022-12-03T12:03:24.009Z,6.80
2022-12-03T12:06:04.097Z,6.90
2022-12-03T12:08:32.227Z,7.00
2022-12-03T12:11:00.192Z,7.10
2022-12-03T12:13:27.615Z,7.10
2022-12-03T12:15:55.146Z,7.20
2022-12-03T12:18:38.038Z,7.30
2022-12-03T12:21:24.273Z,7.20
2022-12-03T12:23:51.700Z,7.10
2022-12-03T12:26:19.122Z,6.90
2022-12-03T12:28:46.655Z,6.80
2022-12-03T12:31:14.074Z,6.60
2022-12-03T12:33:41.509Z,6.50
2022-12-03T12:36:09.443Z,6.30
2022-12-03T12:38:36.856Z,6.20
2022-12-03T12:41:07.501Z,6.10
2022-12-03T12:43:35.997Z,6.10
2022-12-03T12:46:45.381Z,6.00
2022-12-03T12:49:00.048Z,6.00
2022-12-03T12:51:27.642Z,5.90
2022-12-03T12:53:57.227Z,5.90
2022-12-03T12:56:24.672Z,6.00
2022-12-03T12:58:52.469Z,6.00
2022-12-03T13:01:21.118Z,6.10
2022-12-03T13:03:49.843Z,6.20
2022-12-03T13:06:17.226Z,6.30
2022-12-03T13:08:45.721Z,6.40
2022-12-03T13:11:22.176Z,6.40
2022-12-03T13:13:49.592Z,6.40
2022-12-03T13:16:23.311Z,6.50
2022-12-03T13:18:54.887Z,6.40
2022-12-03T13:21:42.067Z,6.30
2022-12-03T13:24:28.254Z,6.30
2022-12-03T13:26:56.043Z,6.30
2022-12-03T13:29:23.805Z,6.30
2022-12-03T13:31:56.379Z,6.30
2022-12-03T13:34:31.038Z,6.40
2022-12-03T13:36:59.609Z,6.40
2022-12-03T13:39:35.171Z,6.40
2022-12-03T13:42:41.339Z,6.50
2022-12-03T13:45:15.029Z,6.50
2022-12-03T13:47:42.713Z,6.50
2022-12-03T13:50:20.881Z,6.50
2022-12-03T13:52:48.658Z,6.50
2022-12-03T13:55:22.783Z,6.50
2022-12-03T13:57:50.182Z,6.50
2022-12-03T14:00:17.839Z,6.50
2022-12-03T14:02:45.324Z,6.40
2022-12-03T14:05:12.869Z,6.40
2022-12-03T14:07:40.953Z,6.30
2022-12-03T14:10:09.060Z,6.30
2022-12-03T14:12:37.102Z,6.20
2022-12-03T14:15:05.538Z,6.20
2022-12-03T14:17:32.918Z,6.10
2022-12-03T14:20:01.436Z,6.10
2022-12-03T14:22:29.280Z,6.10
2022-12-03T14:24:57.218Z,6.10
2022-12-03T14:27:24.982Z,6.00
2022-12-03T14:29:52.945Z,6.00
2022-12-03T14:32:20.601Z,5.90
2022-12-03T14:34:48.347Z,6.00
2022-12-03T14:37:15.942Z,6.00
2022-12-03T14:39:43.418Z,6.00
2022-12-03T14:42:13.753Z,6.00
2022-12-03T14:44:45.528Z,6.10
2022-12-03T14:47:15.154Z,6.00
2022-12-03T14:49:42.988Z,6.00
2022-12-03T14:52:12.394Z,6.10
2022-12-03T14:54:42.642Z,6.20
2022-12-03T14:57:12.631Z,6.20
2022-12-03T14:59:40.735Z,6.30
2022-12-03T15:02:08.839Z,6.30
2022-12-03T15:04:37.890Z,6.30
2022-12-03T15:07:05.419Z,6.40
2022-12-03T15:09:33.106Z,6.40
2022-12-03T15:12:00.480Z,6.40
2022-12-03T15:14:27.972Z,6.40
2022-12-03T15:16:55.509Z,6.30
2022-12-03T15:19:23.137Z,6.30
2022-12-03T15:21:50.600Z,6.20
2022-12-03T15:24:17.994Z,6.20
2022-12-03T15:26:45.395Z,6.20
2022-12-03T15:29:12.893Z,6.20
2022-12-03T15:31:40.278Z,6.20
2022-12-03T15:34:07.719Z,6.20
2022-12-03T15:36:35.185Z,6.20
2022-12-03T15:39:02.905Z,6.10
2022-12-03T15:41:30.579Z,6.10
2022-12-03T15:43:58.993Z,6.10
2022-12-03T15:46:27.915Z,6.10
2022-12-03T15:48:55.905Z,6.10
2022-12-03T15:51:23.681Z,6.20
2022-12-03T15:53:51.326Z,6.10
2022-12-03T15:56:18.758Z,6.10
2022-12-03T15:58:46.171Z,6.10
2022-12-03T16:01:13.886Z,6.10
2022-12-03T16:03:41.869Z,6.20
2022-12-03T16:06:09.355Z,6.20
2022-12-03T16:08:36.832Z,6.10
2022-12-03T16:11:04.520Z,6.10
2022-12-03T16:13:31.887Z,6.10
2022-12-03T16:15:59.872Z,6.10
2022-12-03T16:18:27.329Z,6.10
2022-12-03T16:20:54.773Z,6.10
2022-12-03T16:23:22.181Z,6.10
2022-12-03T16:25:49.681Z,6.10
2022-12-03T16:28:17.154Z,6.10
2022-12-03T16:30:44.629Z,6.10
2022-12-03T16:33:12.322Z,6.10
2022-12-03T16:35:39.872Z,6.10
2022-12-03T16:38:07.237Z,6.10
2022-12-03T16:40:34.628Z,6.00
2022-12-03T16:43:04.204Z,6.10
2022-12-03T16:46:00.849Z,6.10
2022-12-03T16:48:31.462Z,6.00
2022-12-03T16:50:58.941Z,6.00
2022-12-03T16:53:26.308Z,6.00
2022-12-03T16:55:53.677Z,5.90
2022-12-03T16:58:21.646Z,6.00
2022-12-03T17:00:49.287Z,5.90
2022-12-03T17:03:18.030Z,5.90
2022-12-03T17:05:46.140Z,5.90
2022-12-03T17:08:14.041Z,5.90
2022-12-03T17:10:41.763Z,5.90
2022-12-03T17:13:10.477Z,5.90
2022-12-03T17:15:38.643Z,5.90
2022-12-03T17:18:06.735Z,5.90
2022-12-03T17:20:35.667Z,5.90
2022-12-03T17:23:03.832Z,5.80
2022-12-03T17:25:31.268Z,5.90
2022-12-03T17:27:58.702Z,5.80
2022-12-03T17:30:26.173Z,5.80
2022-12-03T17:32:53.858Z,5.80
2022-12-03T17:35:21.433Z,5.80
2022-12-03T17:37:48.850Z,5.80
2022-12-03T17:40:18.185Z,5.80
2022-12-03T17:42:46.119Z,5.80
2022-12-03T17:45:13.665Z,5.80
2022-12-03T17:47:41.089Z,5.80
2022-12-03T17:50:08.802Z,5.80
2022-12-03T17:52:36.226Z,5.80
2022-12-03T17:55:15.790Z,5.80
2022-12-03T17:57:45.482Z,5.80
2022-12-03T18:00:13.365Z,5.80
2022-12-03T18:02:42.653Z,5.80
2022-12-03T18:05:10.171Z,5.80
2022-12-03T18:07:37.662Z,5.80
2022-12-03T18:10:05.438Z,5.80
2022-12-03T18:12:33.109Z,5.80
2022-12-03T18:15:00.485Z,5.80
2022-12-03T18:17:27.892Z,5.80
2022-12-03T18:19:55.471Z,5.80
2022-12-03T18:22:23.253Z,5.80
2022-12-03T18:24:51.913Z,5.80
2022-12-03T18:27:22.863Z,5.80
2022-12-03T18:29:51.947Z,5.80
2022-12-03T18:32:28.336Z,5.80
2022-12-03T18:34:57.473Z,5.80
2022-12-03T18:37:28.797Z,5.80
2022-12-03T18:39:57.344Z,5.80
2022-12-03T18:42:25.567Z,5.80
2022-12-03T18:44:54.731Z,5.80
2022-12-03T18:47:27.249Z,5.80
2022-12-03T18:49:55.304Z,5.80
2022-12-03T18:52:23.634Z,5.80
2022-12-03T18:54:51.114Z,5.80
2022-12-03T18:57:18.677Z,5.70
2022-12-03T18:59:46.234Z,5.60
2022-12-03T19:02:38.527Z,5.60
2022-12-03T19:05:04.332Z,5.60
2022-12-03T19:07:31.797Z,5.50
2022-12-03T19:09:59.283Z,5.60
2022-12-03T19:12:26.655Z,5.60
2022-12-03T19:14:54.116Z,5.60
2022-12-03T19:17:21.840Z,5.60
2022-12-03T19:19:49.402Z,5.60
2022-12-03T19:22:16.756Z,5.60
2022-12-03T19:24:44.173Z,5.60
2022-12-03T19:27:11.742Z,5.60
2022-12-03T19:29:39.315Z,5.60
2022-12-03T19:32:06.944Z,5.60
2022-12-03T19:34:34.541Z,5.60
2022-12-03T19:37:01.997Z,5.60
2022-12-03T19:39:29.443Z,5.60
2022-12-03T19:41:57.036Z,5.50
2022-12-03T19:44:24.878Z,5.60
2022-12-03T19:46:53.081Z,5.60
2022-12-03T19:49:21.433Z,5.50
2022-12-03T19:51:49.140Z,5.50
2022-12-03T19:54:17.160Z,5.50
2022-12-03T19:56:44.907Z,5.50
2022-12-03T19:59:13.186Z,5.50
2022-12-03T20:01:43.211Z,5.50
2022-12-03T20:04:11.418Z,5.50
2022-12-03T20:06:39.229Z,5.40
2022-12-03T20:09:08.266Z,5.40
2022-12-03T20:11:36.055Z,5.40
2022-12-03T20:14:07.621Z,5.40
2022-12-03T20:16:35.220Z,5.40
2022-12-03T20:19:04.529Z,5.40
2022-12-03T20:21:32.538Z,5.30
2022-12-03T20:24:00.548Z,5.40
2022-12-03T20:26:28.522Z,5.30
2022-12-03T20:28:56.731Z,5.30
2022-12-03T20:31:25.635Z,5.30
2022-12-03T20:33:55.056Z,5.30
2022-12-03T20:36:23.377Z,5.30
2022-12-03T20:38:57.924Z,5.20
2022-12-03T20:41:25.779Z,5.20
2022-12-03T20:43:53.512Z,5.20
2022-12-03T20:46:22.154Z,5.20
2022-12-03T20:48:49.593Z,5.20
2022-12-03T20:51:18.343Z,5.20
2022-12-03T20:53:45.920Z,5.20
2022-12-03T20:56:20.655Z,5.10
2022-12-03T20:58:49.057Z,5.10
2022-12-03T21:01:17.820Z,5.10
2022-12-03T21:03:45.570Z,5.10
2022-12-03T21:06:13.630Z,5.10
2022-12-03T21:08:42.684Z,5.00
2022-12-03T21:11:14.692Z,5.00
2022-12-03T21:13:43.938Z,5.00
2022-12-03T21:16:12.789Z,5.10
2022-12-03T21:18:40.256Z,5.10
2022-12-03T21:21:08.651Z,5.10
2022-12-03T21:23:36.445Z,5.00
2022-12-03T21:26:07.015Z,5.00
2022-12-03T21:28:34.608Z,4.90
2022-12-03T21:31:03.212Z,4.80
2022-12-03T21:33:31.170Z,4.80
2022-12-03T21:35:59.071Z,4.70
2022-12-03T21:38:26.845Z,4.70
2022-12-03T21:40:54.845Z,4.80
2022-12-03T21:43:22.848Z,4.80
2022-12-03T21:45:50.597Z,4.80
2022-12-03T21:48:18.496Z,4.80
2022-12-03T21:50:46.382Z,4.80
2022-12-03T21:53:13.856Z,4.80
2022-12-03T21:55:41.687Z,4.80
2022-12-03T21:58:09.075Z,4.80
2022-12-03T22:00:36.595Z,4.80
2022-12-03T22:03:04.107Z,4.80
2022-12-03T22:05:31.638Z,4.70
2022-12-03T22:07:59.167Z,4.70
2022-12-03T22:10:26.650Z,4.60
2022-12-03T22:12:54.043Z,4.60
2022-12-03T22:15:21.521Z,4.50
